Cedar Point, Kansas
Current Conditions -  °F | °C
As of 11:55 PM on Wednesday 22 Oct 2014 (Local Time) from KEWK Reporting Station
Overcast Overcast  
Wind Chill: 61°   Ceiling: 9500
Heat Index: 61°   Visibility: 10mi
Dew Point: 54°   Wind: 10mph
Humidity: 77%   Direction: 200°SSW
Pressure: 30.1"   Gusts: NA
Location:  38.26°N, 96.82°W
Report Text: KEWK 230455Z AUTO 20009KT 10SM OVC095 16/12 A3010 RMK AO1
Loading
Personal Weather Stations






























Interactive Weather Map New forecast layout! Learn more

10-Day Weather Forecast

Advertisements
Track Severe Weather on mobile